Time;durP1;ratioP1;P1;durP2;ratioP2;P2;SDS_P1;SDS_P2;PMS_P1;PMS_P2;Temp;Humidity;BMP_temperature;BMP_pressure;BME280_temperature;BME280_humidity;BME280_pressure;Samples;Min_cycle;Max_cycle;Signal;HPM_P1;HPM_P2
2023/01/17 00:02:00;;;;;;;72.03;18.67;;;;;;;7.20;59.58;97469.16;4364248;32;20494;-88
2023/01/17 00:09:58;;;;;;;154.23;19.37;;;;;;;7.30;59.58;97452.19;4366514;32;20165;-89
2023/01/17 00:12:25;;;;;;;133.43;22.65;;;;;;;7.20;59.58;97445.03;4362063;32;20134;-88
2023/01/17 00:14:52;;;;;;;84.43;18.52;;;;;;;7.32;59.58;97449.53;4362144;32;20456;-89
2023/01/17 00:17:17;;;;;;;77.53;18.25;;;;;;;7.16;59.57;97452.12;4362726;32;20099;-89
2023/01/17 01:34:16;;;;;;;33.55;16.02;;;;;;;7.69;59.61;97454.31;4365478;32;20154;-88
2023/01/17 01:36:41;;;;;;;38.53;16.42;;;;;;;7.79;59.61;97458.94;4375756;32;20127;-88
2023/01/17 01:39:07;;;;;;;31.42;15.85;;;;;;;7.65;59.60;97470.94;4375880;32;20174;-88
2023/01/17 01:41:32;;;;;;;30.98;15.88;;;;;;;7.63;59.60;97465.03;4375410;32;20394;-88
2023/01/17 01:43:58;;;;;;;32.30;15.82;;;;;;;7.70;59.61;97462.91;4375237;32;20423;-88
2023/01/17 01:46:34;;;;;;;29.10;14.93;;;;;;;7.82;59.61;97457.03;4363134;32;20170;-89
2023/01/17 01:49:00;;;;;;;25.10;13.13;;;;;;;7.94;59.62;97452.91;4375497;32;20484;-88
2023/01/17 01:51:38;;;;;;;24.67;12.80;;;;;;;7.97;59.62;97453.56;4375494;32;20554;-89
2023/01/17 01:54:08;;;;;;;26.33;13.95;;;;;;;7.84;59.62;97428.47;4363437;32;20117;-89
2023/01/17 01:56:34;;;;;;;30.00;14.50;;;;;;;7.79;59.61;97420.09;4350939;32;20162;-89
2023/01/17 01:59:01;;;;;;;26.15;13.77;;;;;;;7.74;59.61;97411.78;4375111;32;20380;-89
2023/01/17 02:01:26;;;;;;;31.65;13.80;;;;;;;7.73;59.61;97413.53;4375360;32;20149;-89
2023/01/17 02:03:52;;;;;;;29.80;14.65;;;;;;;7.63;59.61;97412.41;4363083;32;20788;-89
2023/01/17 02:06:34;;;;;;;26.20;13.80;;;;;;;7.87;59.62;97405.81;4362675;32;20099;-89
2023/01/17 02:09:06;;;;;;;25.00;13.13;;;;;;;7.92;59.62;97406.38;4363024;32;20218;-89
2023/01/17 02:11:31;;;;;;;30.15;14.15;;;;;;;7.88;59.62;97410.06;4363182;32;20087;-89
2023/01/17 02:13:56;;;;;;;26.77;13.32;;;;;;;7.84;59.62;97412.94;4362682;32;20098;-89
2023/01/17 02:16:38;;;;;;;29.02;15.27;;;;;;;7.96;59.62;97412.19;4375222;32;20177;-88
2023/01/17 02:19:29;;;;;;;29.05;15.00;;;;;;;7.88;59.61;97414.41;4374955;32;20550;-89
2023/01/17 02:22:22;;;;;;;29.67;15.20;;;;;;;7.97;59.62;97419.03;4368096;32;20494;-90
2023/01/17 02:25:27;;;;;;;35.42;17.25;;;;;;;7.91;59.61;97424.59;4387460;32;20160;-89
2023/01/17 02:28:12;;;;;;;31.42;16.45;;;;;;;7.91;59.61;97415.06;4376175;32;20125;-89
2023/01/17 02:30:49;;;;;;;31.37;16.35;;;;;;;8.11;59.63;97402.69;4376181;32;20110;-89
2023/01/17 02:33:25;;;;;;;36.22;17.75;;;;;;;8.03;59.62;97408.31;4376986;32;20464;-90
2023/01/17 02:35:55;;;;;;;32.15;17.37;;;;;;;8.07;59.63;97409.81;4377064;32;20098;-89
2023/01/17 02:38:30;;;;;;;34.35;17.20;;;;;;;8.06;59.62;97399.56;4376872;32;20407;-89
2023/01/17 02:41:06;;;;;;;35.42;18.35;;;;;;;8.12;59.63;97405.19;4377073;32;20476;-90
2023/01/17 02:43:32;;;;;;;33.90;17.77;;;;;;;8.17;59.63;97399.72;4365430;32;20098;-89
2023/01/17 02:45:57;;;;;;;33.13;18.12;;;;;;;8.13;59.63;97391.31;4376836;32;20388;-89
2023/01/17 02:48:23;;;;;;;35.42;18.73;;;;;;;8.17;59.63;97376.41;4376660;32;20123;-90
2023/01/17 02:51:02;;;;;;;37.97;18.33;;;;;;;8.00;59.62;97369.63;4364313;32;20173;-89
2023/01/17 02:53:54;;;;;;;35.85;18.85;;;;;;;8.16;59.63;97357.44;4364830;32;20106;-89
2023/01/17 02:56:50;;;;;;;34.63;17.95;;;;;;;8.07;59.63;97352.81;4378444;32;20454;-90
2023/01/17 02:59:29;;;;;;;32.33;17.92;;;;;;;8.12;59.63;97347.34;4363799;32;20157;-89
2023/01/17 03:01:59;;;;;;;28.95;15.52;;;;;;;8.00;59.63;97346.31;4389110;32;20173;-89
2023/01/17 03:04:33;;;;;;;27.83;15.77;;;;;;;8.03;59.62;97343.53;4376662;32;20197;-89
2023/01/17 03:07:09;;;;;;;34.33;17.25;;;;;;;8.04;59.62;97341.78;4364392;32;20574;-89
2023/01/17 03:09:34;;;;;;;32.80;17.10;;;;;;;8.23;59.64;97337.16;4364315;32;20149;-89
2023/01/17 03:12:00;;;;;;;37.42;18.12;;;;;;;8.14;59.64;97328.19;4376724;32;20428;-89
2023/01/17 03:14:25;;;;;;;31.10;16.10;;;;;;;8.07;59.63;97326.91;4364182;32;20090;-89
2023/01/17 03:16:50;;;;;;;34.90;16.70;;;;;;;8.12;59.63;97329.22;4364182;32;20182;-89
2023/01/17 03:19:16;;;;;;;30.25;17.37;;;;;;;8.06;59.62;97321.84;4364012;32;20180;-88
2023/01/17 03:21:41;;;;;;;28.73;15.20;;;;;;;7.95;59.62;97328.47;4376360;32;20119;-89
2023/01/17 03:24:07;;;;;;;30.30;15.05;;;;;;;8.04;59.62;97315.88;4376534;32;20139;-89
2023/01/17 03:26:32;;;;;;;30.50;15.45;;;;;;;8.12;59.63;97319.69;4376619;32;20380;-88
2023/01/17 03:28:58;;;;;;;32.78;16.05;;;;;;;8.09;59.63;97311.28;4376471;32;20160;-88
2023/01/17 03:31:23;;;;;;;29.50;14.30;;;;;;;8.22;59.64;97302.63;4376674;32;20173;-89
2023/01/17 03:33:48;;;;;;;32.38;14.82;;;;;;;8.18;59.63;97298.59;4376400;32;20161;-89
2023/01/17 03:36:14;;;;;;;30.55;14.70;;;;;;;8.25;59.64;97301.63;4364469;32;20122;-89
2023/01/17 03:38:39;;;;;;;25.52;13.32;;;;;;;8.12;59.63;97293.78;4376289;32;20107;-88
2023/01/17 03:41:05;;;;;;;29.37;12.95;;;;;;;8.24;59.64;97287.81;4375825;32;20165;-88
2023/01/17 03:43:30;;;;;;;26.45;13.65;;;;;;;8.24;59.64;97287.81;4376147;32;20159;-88
2023/01/17 03:46:06;;;;;;;25.77;12.80;;;;;;;8.19;59.63;97289.88;4364026;32;20108;-88
2023/01/17 03:48:31;;;;;;;21.10;11.00;;;;;;;8.16;59.63;97289.25;4354930;32;20129;-88
2023/01/17 03:50:57;;;;;;;26.30;12.82;;;;;;;8.07;59.63;97285.47;4376315;32;20490;-88
2023/01/17 03:53:22;;;;;;;27.23;12.57;;;;;;;8.11;59.63;97284.34;4377440;32;20098;-88
2023/01/17 03:55:48;;;;;;;21.90;11.07;;;;;;;8.12;59.63;97282.59;4376330;32;20452;-89
2023/01/17 03:58:14;;;;;;;18.23;10.35;;;;;;;8.24;59.63;97287.81;4376436;32;20402;-88
2023/01/17 04:00:40;;;;;;;20.65;10.00;;;;;;;8.27;59.63;97289.41;4376261;32;20141;-89
2023/01/17 04:03:05;;;;;;;22.27;10.30;;;;;;;8.19;59.63;97274.31;4388690;32;20095;-88
2023/01/17 04:05:30;;;;;;;18.17;9.68;;;;;;;8.16;59.63;97274.53;4377445;32;20519;-88
2023/01/17 04:07:56;;;;;;;17.12;9.00;;;;;;;8.25;59.64;97284.31;4376254;32;20153;-89
2023/01/17 04:10:21;;;;;;;16.67;9.02;;;;;;;8.30;59.63;97273.69;4351601;32;20099;-90
2023/01/17 04:12:47;;;;;;;23.92;10.07;;;;;;;8.37;59.65;97275.00;4329420;32;20131;-91
2023/01/17 04:15:15;;;;;;;17.90;8.43;;;;;;;8.41;59.65;97265.25;4352201;32;20108;-91
2023/01/17 04:17:40;;;;;;;13.93;7.95;;;;;;;8.49;59.65;97270.78;4352139;32;20440;-91
2023/01/17 04:20:06;;;;;;;14.68;7.70;;;;;;;8.47;59.65;97272.63;4351542;32;20111;-90
2023/01/17 04:22:32;;;;;;;13.27;7.10;;;;;;;8.59;59.66;97277.06;4351597;32;20087;-89
2023/01/17 04:24:57;;;;;;;15.40;6.95;;;;;;;8.42;59.64;97282.47;4351591;32;20144;-89
2023/01/17 04:27:23;;;;;;;14.73;6.78;;;;;;;8.48;59.65;97282.91;4351657;32;20161;-89
2023/01/17 04:29:48;;;;;;;13.15;6.00;;;;;;;8.56;59.65;97288.47;4363785;32;20126;-89
2023/01/17 04:32:14;;;;;;;15.48;6.28;;;;;;;8.51;59.64;97287.06;4364128;32;20161;-89
2023/01/17 04:34:39;;;;;;;13.35;6.18;;;;;;;8.42;59.64;97287.66;4363965;32;20168;-90
2023/01/17 04:37:06;;;;;;;12.13;5.90;;;;;;;8.55;59.65;97280.78;4351554;32;20143;-89
2023/01/17 04:39:31;;;;;;;11.43;5.47;;;;;;;8.47;59.65;97285.59;4351489;32;20542;-90
2023/01/17 04:41:57;;;;;;;11.88;5.30;;;;;;;8.58;59.65;97290.97;4351689;32;20130;-90
2023/01/17 04:44:22;;;;;;;13.32;5.07;;;;;;;8.62;59.65;97287.25;4342008;32;20103;-89
2023/01/17 04:46:48;;;;;;;10.23;4.82;;;;;;;8.59;59.66;97282.25;4351586;32;20099;-90
2023/01/17 04:49:13;;;;;;;10.57;4.40;;;;;;;8.56;59.65;97272.06;4339294;32;20399;-90
2023/01/17 04:51:38;;;;;;;12.30;4.70;;;;;;;8.40;59.65;97281.72;4351542;32;20436;-89
2023/01/17 04:54:04;;;;;;;10.52;4.90;;;;;;;8.57;59.65;97289.28;4364347;32;20106;-89
2023/01/17 04:56:29;;;;;;;10.57;5.05;;;;;;;8.61;59.66;97286.41;4352314;32;20476;-90
2023/01/17 04:58:58;;;;;;;9.93;5.10;;;;;;;8.65;59.66;97276.66;4339520;32;20136;-90
2023/01/17 05:01:23;;;;;;;11.10;5.07;;;;;;;8.66;59.66;97280.09;4351556;32;20539;-90
2023/01/17 05:03:49;;;;;;;9.73;4.65;;;;;;;8.57;59.65;97276.31;4339136;32;20110;-89
2023/01/17 05:06:14;;;;;;;19.83;3.78;;;;;;;8.63;59.66;97283.72;4363312;32;20160;-90
2023/01/17 05:08:39;;;;;;;7.07;3.08;;;;;;;8.70;59.66;97281.56;4355239;32;20416;-88
2023/01/17 05:11:05;;;;;;;8.85;3.40;;;;;;;8.65;59.66;97281.03;4376155;32;20334;-89
2023/01/17 05:13:30;;;;;;;7.12;3.37;;;;;;;8.53;59.66;97277.47;4376268;32;20125;-90
2023/01/17 05:15:57;;;;;;;4.93;2.95;;;;;;;8.59;59.66;97277.91;4351216;32;20126;-90
2023/01/17 05:18:22;;;;;;;5.90;2.22;;;;;;;8.58;59.65;97289.19;4363951;32;20158;-90
2023/01/17 05:20:48;;;;;;;7.45;2.10;;;;;;;8.53;59.66;97293.84;4363596;32;20128;-91
2023/01/17 05:23:13;;;;;;;5.85;2.45;;;;;;;8.69;59.66;97288.50;4376144;32;20107;-90
2023/01/17 05:25:43;;;;;;;5.22;2.20;;;;;;;8.56;59.65;97287.63;4375985;32;20129;-90
2023/01/17 05:28:08;;;;;;;4.50;2.40;;;;;;;8.54;59.65;97292.91;4375937;32;20134;-90
2023/01/17 05:30:34;;;;;;;6.28;2.67;;;;;;;8.59;59.66;97297.81;4375860;32;20079;-91
2023/01/17 05:32:59;;;;;;;5.90;2.28;;;;;;;8.63;59.66;97290.66;4376132;32;20087;-89
2023/01/17 05:35:27;;;;;;;5.53;2.53;;;;;;;8.40;59.65;97299.88;4363297;32;20123;-90
2023/01/17 05:37:52;;;;;;;5.53;2.42;;;;;;;8.59;59.66;97303.00;4354594;32;20103;-91
2023/01/17 05:40:26;;;;;;;6.65;3.35;;;;;;;8.61;59.65;97304.56;4363937;32;20141;-89
2023/01/17 05:42:55;;;;;;;8.00;3.65;;;;;;;8.57;59.65;97307.44;4375747;32;20508;-89
2023/01/17 05:45:22;;;;;;;9.02;3.58;;;;;;;8.65;59.66;97312.13;4363786;32;20200;-89
2023/01/17 05:47:49;;;;;;;8.40;3.30;;;;;;;8.65;59.66;97320.75;4363908;32;20173;-89
2023/01/17 05:50:22;;;;;;;11.65;3.87;;;;;;;8.68;59.66;97332.69;4363531;32;20452;-89
2023/01/17 05:52:52;;;;;;;10.50;4.10;;;;;;;8.64;59.66;97332.06;4375935;32;20460;-89
2023/01/17 05:55:18;;;;;;;7.45;3.60;;;;;;;8.54;59.65;97334.41;4376174;32;20106;-89
2023/01/17 05:57:44;;;;;;;6.05;2.87;;;;;;;8.63;59.66;97339.94;4375859;32;20159;-89
2023/01/17 06:00:10;;;;;;;7.45;2.75;;;;;;;8.59;59.66;97339.28;4375986;32;20150;-89
2023/01/17 06:02:35;;;;;;;7.03;3.20;;;;;;;8.47;59.65;97351.25;4363375;32;20527;-89
2023/01/17 06:05:01;;;;;;;5.45;3.15;;;;;;;8.48;59.65;97352.06;4377777;32;20138;-89
2023/01/17 06:07:26;;;;;;;7.03;3.22;;;;;;;8.57;59.65;97354.94;4367878;32;20159;-90
2023/01/17 06:09:52;;;;;;;6.82;2.83;;;;;;;8.62;59.66;97359.84;4381319;32;20091;-90
2023/01/17 06:12:17;;;;;;;7.30;3.50;;;;;;;8.53;59.66;97358.66;4381686;32;20129;-90
2023/01/17 06:14:42;;;;;;;5.90;3.25;;;;;;;8.56;59.65;97361.06;4380531;32;20102;-90
2023/01/17 06:17:08;;;;;;;4.50;2.28;;;;;;;8.48;59.65;97368.47;4366872;32;20468;-90
2023/01/17 06:19:33;;;;;;;7.28;2.83;;;;;;;8.47;59.65;97368.56;4374284;32;20154;-91
2023/01/17 06:21:59;;;;;;;3.65;1.95;;;;;;;8.42;59.64;97373.19;4389051;32;20090;-88
2023/01/17 06:24:24;;;;;;;6.28;2.58;;;;;;;8.27;59.64;97367.12;4380664;32;20147;-90
2023/01/17 06:26:49;;;;;;;5.62;2.60;;;;;;;8.37;59.65;97368.31;4379763;32;20106;-90
2023/01/17 06:29:15;;;;;;;4.72;2.08;;;;;;;8.37;59.65;97370.87;4380064;32;20194;-90
2023/01/17 06:31:40;;;;;;;3.55;2.65;;;;;;;8.23;59.64;97376.03;4379764;32;20201;-90
2023/01/17 06:34:06;;;;;;;4.78;2.58;;;;;;;8.22;59.64;97385.56;4380232;32;20177;-90
2023/01/17 06:36:32;;;;;;;6.62;2.95;;;;;;;8.19;59.63;97388.34;4379667;32;20138;-90
2023/01/17 06:38:57;;;;;;;11.77;2.95;;;;;;;8.01;59.63;97400.63;4380080;32;20125;-90
2023/01/17 06:41:24;;;;;;;7.82;2.75;;;;;;;8.06;59.62;97408.16;4367278;32;20102;-90
2023/01/17 06:43:51;;;;;;;9.00;3.22;;;;;;;8.24;59.64;97404.44;4380055;32;20153;-89
2023/01/17 06:46:17;;;;;;;6.50;3.45;;;;;;;8.10;59.62;97409.63;4367544;32;20566;-90
2023/01/17 06:48:42;;;;;;;5.72;3.20;;;;;;;8.20;59.63;97412.50;4379907;32;20087;-90
2023/01/17 06:51:08;;;;;;;7.07;3.65;;;;;;;8.19;59.63;97416.84;4379780;32;20915;-90
2023/01/17 06:53:34;;;;;;;6.45;3.60;;;;;;;8.24;59.64;97425.19;4381286;32;20083;-89
2023/01/17 06:55:59;;;;;;;6.12;3.30;;;;;;;8.23;59.64;97431.28;4379874;32;20136;-90
2023/01/17 06:58:25;;;;;;;6.50;3.08;;;;;;;8.24;59.64;97439.91;4380026;32;20142;-90
2023/01/17 07:00:50;;;;;;;7.53;3.80;;;;;;;8.39;59.65;97436.44;4379632;32;20136;-90
2023/01/17 07:03:20;;;;;;;6.87;3.72;;;;;;;8.24;59.63;97438.13;4379781;32;20142;-90
2023/01/17 07:05:46;;;;;;;;;;;;;;;8.26;59.63;97446.66;4367679;32;20122;-90
2023/01/17 07:08:11;;;;;;;6.82;2.85;;;;;;;8.08;59.63;97442.59;4367168;32;20255;-90
2023/01/17 07:10:36;;;;;;;7.80;2.78;;;;;;;8.10;59.62;97455.44;4366810;32;20180;-90
2023/01/17 07:13:02;;;;;;;4.32;2.42;;;;;;;8.12;59.63;97451.84;4379815;32;20136;-90
2023/01/17 07:15:27;;;;;;;7.10;3.65;;;;;;;8.16;59.63;97455.91;4366851;32;20151;-90
2023/01/17 07:17:53;;;;;;;8.07;3.50;;;;;;;8.00;59.63;97455.97;4376973;32;20098;-90
2023/01/17 07:20:18;;;;;;;6.12;2.97;;;;;;;7.96;59.62;97466.59;4376675;32;20095;-90
2023/01/17 07:22:44;;;;;;;5.60;3.03;;;;;;;7.91;59.61;97466.03;4376441;32;20158;-90
2023/01/17 07:25:09;;;;;;;5.60;2.53;;;;;;;7.91;59.61;97481.56;4363110;32;20406;-89
2023/01/17 07:27:34;;;;;;;5.20;3.03;;;;;;;7.74;59.60;97484.28;4370602;32;20091;-90
2023/01/17 07:30:00;;;;;;;3.10;1.60;;;;;;;7.73;59.61;97483.44;4377041;32;20106;-90
2023/01/17 07:32:25;;;;;;;3.58;2.05;;;;;;;7.50;59.60;97497.69;4376846;32;20134;-90
2023/01/17 07:34:51;;;;;;;4.00;1.60;;;;;;;7.41;59.59;97502.53;4376735;32;20114;-90
2023/01/17 07:37:18;;;;;;;2.65;1.50;;;;;;;7.43;59.59;97501.53;4377106;32;20144;-90
2023/01/17 07:39:44;;;;;;;2.05;1.20;;;;;;;7.56;59.60;97512.88;4364769;32;20140;-91
2023/01/17 07:42:09;;;;;;;2.25;1.02;;;;;;;7.58;59.60;97513.66;4377101;32;20114;-90
2023/01/17 07:44:35;;;;;;;1.35;0.75;;;;;;;7.44;59.59;97529.09;4363986;32;20174;-91
2023/01/17 07:47:00;;;;;;;6.07;1.30;;;;;;;7.48;59.60;97543.53;4364267;32;20113;-91
2023/01/17 07:49:26;;;;;;;2.97;1.30;;;;;;;7.42;59.59;97543.88;4376625;32;20396;-89
2023/01/17 07:51:51;;;;;;;2.75;0.82;;;;;;;7.26;59.58;97550.78;4376642;32;20145;-90
2023/01/17 07:54:16;;;;;;;2.97;1.17;;;;;;;7.11;59.58;97555.03;4377790;32;20169;-90
2023/01/17 07:56:45;;;;;;;1.42;0.65;;;;;;;7.19;59.58;97555.47;4376845;32;20172;-90
2023/01/17 07:59:11;;;;;;;4.78;2.08;;;;;;;7.18;59.58;97563.31;4364419;32;20099;-90
2023/01/17 08:01:36;;;;;;;4.12;1.92;;;;;;;7.13;59.58;97562.72;4376635;32;20163;-89
2023/01/17 08:04:02;;;;;;;2.17;1.20;;;;;;;7.15;59.57;97566.91;4376490;32;20491;-90
2023/01/17 08:06:28;;;;;;;17.30;7.80;;;;;;;7.27;59.58;97573.16;4376682;32;20161;-90
2023/01/17 08:08:55;;;;;;;27.20;11.95;;;;;;;7.46;59.59;97573.00;4364840;32;20086;-89
2023/01/17 08:11:21;;;;;;;12.48;5.68;;;;;;;7.53;59.59;97576.91;4350618;32;20067;-90
2023/01/17 08:13:46;;;;;;;2.15;1.20;;;;;;;7.64;59.61;97566.84;4384718;32;20161;-90
2023/01/17 08:16:12;;;;;;;9.88;4.35;;;;;;;7.59;59.60;97571.44;4376622;32;20102;-90
2023/01/17 08:18:38;;;;;;;2.10;1.12;;;;;;;7.66;59.60;97585.72;4363867;32;20141;-90
2023/01/17 08:21:03;;;;;;;4.53;1.85;;;;;;;7.60;59.60;97584.28;4376569;32;20169;-90
2023/01/17 08:23:32;;;;;;;0.70;0.40;;;;;;;7.53;59.59;97580.34;4364105;32;20095;-89
2023/01/17 08:26:00;;;;;;;0.70;0.30;;;;;;;7.56;59.60;97581.94;4370848;32;20114;-91
2023/01/17 08:28:26;;;;;;;2.53;1.30;;;;;;;7.56;59.60;97593.13;4369811;32;20087;-89
2023/01/17 08:30:51;;;;;;;0.90;0.80;;;;;;;7.57;59.60;97591.38;4361328;32;20381;-91
2023/01/17 08:33:16;;;;;;;1.33;0.85;;;;;;;7.71;59.61;97599.22;4359988;32;20183;-89
2023/01/17 08:35:52;;;;;;;2.42;1.62;;;;;;;7.85;59.62;97614.84;4376333;32;20351;-89
2023/01/17 08:38:18;;;;;;;2.65;1.30;;;;;;;7.92;59.63;97612.75;4363869;32;20099;-90
2023/01/17 08:40:43;;;;;;;1.20;0.50;;;;;;;8.00;59.63;97602.78;4376377;32;20137;-89
2023/01/17 08:43:08;;;;;;;4.00;1.98;;;;;;;8.17;59.63;97604.44;4363225;32;20177;-90
2023/01/17 08:45:34;;;;;;;2.53;1.20;;;;;;;8.30;59.64;97608.88;4376192;32;20128;-90
2023/01/17 08:47:59;;;;;;;0.52;0.10;;;;;;;8.36;59.64;97609.47;4376135;32;20125;-90
2023/01/17 08:50:25;;;;;;;0.93;0.60;;;;;;;8.37;59.65;97604.19;4376406;32;20477;-89
2023/01/17 08:52:56;;;;;;;2.55;1.70;;;;;;;8.52;59.66;97607.66;4363791;32;20587;-89
2023/01/17 08:55:21;;;;;;;3.70;1.62;;;;;;;8.58;59.65;97602.13;4364497;32;20066;-89
2023/01/17 08:57:46;;;;;;;2.00;1.20;;;;;;;8.47;59.65;97601.88;4376351;32;20188;-89
2023/01/17 09:00:12;;;;;;;0.62;0.30;;;;;;;8.48;59.65;97595.78;4377486;32;20171;-89
2023/01/17 09:02:38;;;;;;;1.87;0.32;;;;;;;8.38;59.65;97599.84;4376453;32;20173;-90
2023/01/17 09:05:03;;;;;;;0.70;0.30;;;;;;;8.37;59.65;97599.00;4376450;32;20090;-89
2023/01/17 09:07:29;;;;;;;2.47;1.30;;;;;;;8.57;59.65;97592.66;4353781;32;20091;-90
2023/01/17 09:09:54;;;;;;;0.70;0.30;;;;;;;8.55;59.65;97615.25;4375999;32;20141;-89
2023/01/17 09:12:21;;;;;;;0.40;0.17;;;;;;;8.43;59.64;97621.97;4376085;32;20103;-89
2023/01/17 09:14:46;;;;;;;0.73;0.37;;;;;;;8.27;59.63;97627.16;4376471;32;20106;-89
2023/01/17 09:17:12;;;;;;;4.00;2.95;;;;;;;8.24;59.63;97629.09;4370183;32;20123;-89
2023/01/17 09:19:40;;;;;;;1.42;1.12;;;;;;;8.25;59.63;97625.56;4380074;32;20111;-89
2023/01/17 09:22:06;;;;;;;1.12;0.40;;;;;;;8.43;59.64;97631.50;4379124;32;20465;-89
2023/01/17 09:24:32;;;;;;;1.37;0.30;;;;;;;8.49;59.65;97625.97;4376024;32;20105;-89
2023/01/17 09:26:57;;;;;;;1.85;0.47;;;;;;;8.57;59.65;97618.59;4363329;32;20241;-90
2023/01/17 09:29:23;;;;;;;0.35;0.20;;;;;;;8.51;59.64;97626.72;4375962;32;20509;-89
2023/01/17 09:31:48;;;;;;;0.10;0.10;;;;;;;8.50;59.65;97630.22;4377206;32;20128;-89
2023/01/17 09:34:14;;;;;;;0.65;0.25;;;;;;;8.52;59.66;97633.59;4376002;32;20466;-89
2023/01/17 09:36:40;;;;;;;0.70;0.20;;;;;;;8.42;59.64;97650.59;4363370;32;20099;-89
2023/01/17 09:39:07;;;;;;;0.40;0.20;;;;;;;8.49;59.65;97644.94;4362743;32;20153;-89
2023/01/17 09:41:42;;;;;;;1.00;0.20;;;;;;;8.59;59.66;97651.31;4375452;32;20123;-89
2023/01/17 09:44:26;;;;;;;0.30;0.25;;;;;;;8.79;59.66;97657.94;4375845;32;20094;-90
2023/01/17 09:46:54;;;;;;;0.30;0.13;;;;;;;8.74;59.67;97657.34;4363728;32;20214;-89
2023/01/17 09:49:36;;;;;;;0.47;0.25;;;;;;;9.03;59.68;97663.44;4375886;32;20098;-89
2023/01/17 09:52:02;;;;;;;0.40;0.15;;;;;;;9.02;59.67;97663.53;4375835;32;20128;-89
2023/01/17 09:54:38;;;;;;;0.45;0.20;;;;;;;8.92;59.68;97671.00;4363092;32;20396;-89
2023/01/17 09:57:07;;;;;;;0.37;0.15;;;;;;;9.06;59.68;97665.03;4363499;32;20083;-89
2023/01/17 09:59:56;;;;;;;0.52;0.15;;;;;;;9.01;59.68;97673.09;4374107;32;20170;-89
2023/01/17 10:02:30;;;;;;;1.10;0.10;;;;;;;9.34;59.70;97680.62;4373516;32;20110;-89
2023/01/17 10:05:16;;;;;;;0.98;0.25;;;;;;;9.38;59.69;97684.69;4364149;32;20110;-89
2023/01/17 10:07:59;;;;;;;1.55;0.15;;;;;;;9.16;59.69;97687.72;4375721;32;20150;-89
2023/01/17 10:10:49;;;;;;;0.30;0.20;;;;;;;9.31;59.69;97691.19;4375730;32;20129;-89
2023/01/17 10:13:25;;;;;;;0.13;0.10;;;;;;;9.36;59.70;97689.16;4369869;32;20094;-89
2023/01/17 10:15:56;;;;;;;0.70;0.28;;;;;;;9.54;59.70;97695.84;4375497;32;20148;-89
2023/01/17 10:18:45;;;;;;;0.20;0.20;;;;;;;9.52;59.71;97691.66;4376957;32;20102;-89
2023/01/17 10:21:21;;;;;;;0.43;0.22;;;;;;;9.81;59.72;97689.88;4377686;32;20134;-90
2023/01/17 10:24:00;;;;;;;0.73;0.37;;;;;;;9.81;59.72;97682.09;4351197;32;20095;-90
2023/01/17 10:26:25;;;;;;;0.62;0.20;;;;;;;10.02;59.72;97677.31;4364031;32;20087;-90
2023/01/17 10:28:52;;;;;;;0.93;0.30;;;;;;;10.24;59.74;97676.84;4363074;32;20097;-90
2023/01/17 10:31:30;;;;;;;0.40;0.25;;;;;;;10.22;59.74;97678.72;4362790;32;20217;-88
2023/01/17 10:34:02;;;;;;;0.50;0.20;;;;;;;10.22;59.74;97673.50;4375172;32;20129;-90
2023/01/17 10:36:36;;;;;;;0.20;0.20;;;;;;;10.12;59.74;97673.19;4363391;32;20071;-88
2023/01/17 10:39:24;;;;;;;0.70;0.10;;;;;;;10.06;59.74;97663.19;4362908;32;20100;-88
2023/01/17 10:41:58;;;;;;;0.20;0.10;;;;;;;10.13;59.74;97661.87;4374848;32;20463;-88
2023/01/17 10:44:48;;;;;;;0.55;0.20;;;;;;;10.09;59.73;97657.81;4362958;32;20408;-88
2023/01/17 10:47:17;;;;;;;;;;;;;;;10.05;59.73;97649.38;4367448;32;20086;-88
2023/01/17 10:49:47;;;;;;;0.57;0.25;;;;;;;10.03;59.74;97642.59;4375107;32;20044;-90
2023/01/17 10:52:28;;;;;;;0.50;0.13;;;;;;;9.93;59.73;97650.12;4364718;32;20098;-88
2023/01/17 10:55:35;;;;;;;0.13;0.10;;;;;;;10.06;59.74;97643.25;4378289;32;20103;-88
2023/01/17 10:58:01;;;;;;;0.47;0.15;;;;;;;10.08;59.73;97641.38;4365842;32;20149;-88
2023/01/17 11:00:42;;;;;;;2.22;0.10;;;;;;;10.06;59.73;97640.63;4356272;32;20107;-88
2023/01/17 11:03:09;;;;;;;0.37;0.20;;;;;;;10.32;59.75;97631.19;4385834;32;20102;-88
2023/01/17 11:05:35;;;;;;;0.73;0.35;;;;;;;10.36;59.75;97624.03;4372537;32;20098;-88
2023/01/17 11:08:05;;;;;;;0.93;0.60;;;;;;;10.45;59.76;97610.44;4376669;32;20128;-88
2023/01/17 11:10:49;;;;;;;0.80;0.20;;;;;;;10.67;59.76;97604.66;4378031;32;20095;-88
2023/01/17 11:13:18;;;;;;;0.43;0.20;;;;;;;10.48;59.76;97612.84;4352228;32;20109;-89
2023/01/17 11:15:46;;;;;;;0.90;0.37;;;;;;;10.36;59.75;97613.63;4378202;32;20443;-88
2023/01/17 11:18:18;;;;;;;0.85;0.40;;;;;;;10.50;59.76;97603.16;4352325;32;20481;-89
2023/01/17 11:20:44;;;;;;;2.37;0.80;;;;;;;10.55;59.77;97598.50;4352195;32;20157;-89
2023/01/17 11:23:16;;;;;;;1.00;0.40;;;;;;;10.68;59.76;97591.56;4351801;32;20127;-89
2023/01/17 11:25:54;;;;;;;0.28;0.20;;;;;;;10.79;59.77;97588.22;4364495;32;20121;-89
2023/01/17 11:28:25;;;;;;;0.73;0.37;;;;;;;10.87;59.78;97588.53;4352067;32;20507;-89
2023/01/17 11:31:20;;;;;;;0.30;0.20;;;;;;;10.84;59.77;97593.09;4365097;32;20109;-88
2023/01/17 11:33:48;;;;;;;1.37;0.75;;;;;;;10.94;59.79;97578.56;4376590;32;20121;-89
2023/01/17 11:36:26;;;;;;;0.62;0.22;;;;;;;11.02;59.79;97576.25;4352397;32;20125;-88
2023/01/17 11:38:58;;;;;;;2.03;0.50;;;;;;;10.85;59.78;97574.78;4352776;32;20087;-89
2023/01/17 11:41:24;;;;;;;1.62;0.40;;;;;;;10.96;59.78;97566.25;4364451;32;20114;-89
2023/01/17 11:43:51;;;;;;;1.48;0.40;;;;;;;11.02;59.79;97556.25;4364542;32;20098;-89
2023/01/17 11:46:22;;;;;;;1.05;0.47;;;;;;;11.24;59.80;97562.59;4352642;32;20099;-90
2023/01/17 11:48:58;;;;;;;0.90;0.40;;;;;;;11.17;59.80;97571.78;4353663;32;20091;-89
2023/01/17 11:51:23;;;;;;;0.85;0.40;;;;;;;10.96;59.79;97572.31;4352188;32;20429;-88
2023/01/17 11:53:49;;;;;;;1.25;0.52;;;;;;;10.81;59.78;97581.12;4377885;32;20146;-89
2023/01/17 11:56:37;;;;;;;1.73;0.60;;;;;;;10.75;59.77;97577.19;4377790;32;20094;-89
2023/01/17 11:59:17;;;;;;;1.17;0.62;;;;;;;11.08;59.80;97591.44;4363929;32;20113;-89
2023/01/17 12:02:20;;;;;;;4.87;1.87;;;;;;;11.21;59.80;97600.09;4377836;32;20083;-89
2023/01/17 12:05:17;;;;;;;3.60;0.98;;;;;;;11.22;59.80;97606.13;4368130;32;20145;-89
2023/01/17 12:07:46;;;;;;;0.85;0.50;;;;;;;11.23;59.80;97602.59;4339178;32;20625;-89
2023/01/17 12:10:30;;;;;;;2.85;0.95;;;;;;;11.14;59.79;97601.47;4375850;32;20123;-89
2023/01/17 12:18:54;;;;;;;2.95;1.37;;;;;;;11.32;59.81;97601.94;4377743;32;20549;-90
2023/01/17 12:21:33;;;;;;;4.28;2.05;;;;;;;11.34;59.81;97600.06;4376454;32;20548;-90
2023/01/17 12:24:23;;;;;;;3.30;1.23;;;;;;;11.62;59.82;97594.63;4364483;32;20083;-89
2023/01/17 12:26:58;;;;;;;4.87;1.20;;;;;;;11.55;59.82;97589.91;4388811;32;20102;-90
2023/01/17 12:29:45;;;;;;;5.70;1.73;;;;;;;11.59;59.83;97584.41;4364837;32;20145;-90
2023/01/17 12:32:10;;;;;;;2.35;1.35;;;;;;;11.72;59.83;97592.19;4376260;32;20078;-90
2023/01/17 12:34:49;;;;;;;5.18;1.90;;;;;;;11.73;59.83;97586.03;4369251;32;20110;-90
2023/01/17 12:37:41;;;;;;;5.57;2.37;;;;;;;11.56;59.81;97587.19;4367888;32;20098;-89
2023/01/17 12:40:26;;;;;;;3.00;1.40;;;;;;;11.71;59.83;97585.31;4363114;32;20130;-89
2023/01/17 12:42:55;;;;;;;3.70;2.03;;;;;;;11.59;59.81;97587.00;4358757;32;20437;-90
2023/01/17 12:45:30;;;;;;;2.35;1.20;;;;;;;11.75;59.83;97584.13;4363948;32;20166;-90
2023/01/17 12:48:16;;;;;;;1.37;0.80;;;;;;;11.79;59.83;97577.78;4364112;32;20107;-89
2023/01/17 12:51:00;;;;;;;1.40;0.80;;;;;;;11.60;59.81;97577.44;4364270;32;20107;-89
2023/01/17 12:53:43;;;;;;;2.42;1.20;;;;;;;11.56;59.82;97575.94;4376488;32;20120;-89
2023/01/17 12:56:23;;;;;;;1.00;0.60;;;;;;;11.69;59.83;97571.56;4376284;32;20098;-90
2023/01/17 12:58:51;;;;;;;2.10;0.90;;;;;;;11.77;59.83;97581.41;4377292;32;20122;-89
2023/01/17 13:01:22;;;;;;;3.50;1.20;;;;;;;11.78;59.83;97572.66;4363947;32;20137;-89
2023/01/17 13:04:14;;;;;;;4.62;1.17;;;;;;;11.84;59.84;97574.88;4376273;32;20091;-89
2023/01/17 13:06:51;;;;;;;4.70;1.83;;;;;;;11.67;59.83;97574.25;4359159;32;20090;-90
2023/01/17 13:09:19;;;;;;;3.83;1.92;;;;;;;11.63;59.82;97569.37;4375217;32;20107;-89
2023/01/17 13:11:51;;;;;;;5.43;2.10;;;;;;;11.56;59.82;97568.13;4363867;32;20198;-89
2023/01/17 13:14:17;;;;;;;2.90;1.50;;;;;;;11.56;59.82;97581.16;4373301;32;20091;-89
2023/01/17 13:16:52;;;;;;;3.78;0.90;;;;;;;11.50;59.82;97581.59;4355107;32;20154;-90